Time;durP1;ratioP1;P1;durP2;ratioP2;P2;SDS_P1;SDS_P2;PMS_P1;PMS_P2;Temp;Humidity;BMP_temperature;BMP_pressure;BME280_temperature;BME280_humidity;BME280_pressure;Samples;Min_cycle;Max_cycle;Signal;HPM_P1;HPM_P2
2023/08/28 00:00:33;;;;;;;0.60;0.60;;;23.40;55.40;;;;;;4943628;28;88100;-86
2023/08/28 00:02:59;;;;;;;0.70;0.70;;;23.40;55.70;;;;;;4943922;28;89130;-86
2023/08/28 00:05:24;;;;;;;0.85;0.60;;;23.40;55.50;;;;;;4945496;28;87531;-88
2023/08/28 00:07:50;;;;;;;0.65;0.50;;;23.40;55.40;;;;;;4945601;28;88454;-86
2023/08/28 00:10:16;;;;;;;0.50;0.50;;;23.40;55.50;;;;;;4946680;28;87903;-89
2023/08/28 00:12:43;;;;;;;1.00;0.60;;;23.40;55.70;;;;;;4944906;28;87232;-88
2023/08/28 00:15:09;;;;;;;0.95;0.50;;;23.40;55.40;;;;;;4944258;28;88183;-86
2023/08/28 00:17:36;;;;;;;0.50;0.50;;;23.40;55.70;;;;;;4941877;28;90104;-90
2023/08/28 00:20:03;;;;;;;0.90;0.70;;;23.40;55.60;;;;;;4947177;28;87485;-86
2023/08/28 00:22:29;;;;;;;0.40;0.40;;;23.40;55.70;;;;;;4944003;28;87850;-86
2023/08/28 00:24:54;;;;;;;0.50;0.50;;;23.40;55.60;;;;;;4943658;28;89022;-84
2023/08/28 00:27:20;;;;;;;0.75;0.70;;;23.40;55.70;;;;;;4944751;28;89295;-83
2023/08/28 00:29:46;;;;;;;0.68;0.60;;;23.40;55.60;;;;;;4944563;28;87982;-88
2023/08/28 00:32:11;;;;;;;3.28;0.57;;;23.40;55.70;;;;;;4944444;28;87398;-86
2023/08/28 00:34:37;;;;;;;1.63;0.80;;;23.40;55.70;;;;;;4944186;28;87697;-85
2023/08/28 00:37:04;;;;;;;0.70;0.50;;;23.40;55.60;;;;;;4945008;28;87366;-83
2023/08/28 00:39:30;;;;;;;0.88;0.80;;;23.40;55.80;;;;;;4945847;28;87691;-85
2023/08/28 00:41:55;;;;;;;0.50;0.50;;;23.40;55.80;;;;;;4947967;28;92647;-85
2023/08/28 00:44:21;;;;;;;0.80;0.70;;;23.40;55.70;;;;;;4948970;28;88146;-84
2023/08/28 00:46:46;;;;;;;1.92;0.60;;;23.30;55.60;;;;;;4947733;28;87293;-88
2023/08/28 00:49:12;;;;;;;0.93;0.50;;;23.40;55.60;;;;;;4947996;28;88377;-86
2023/08/28 00:51:39;;;;;;;0.60;0.60;;;23.40;55.60;;;;;;4946488;28;89155;-86
2023/08/28 00:54:07;;;;;;;1.05;0.70;;;23.40;55.70;;;;;;4947811;28;88050;-84
2023/08/28 00:56:34;;;;;;;0.77;0.60;;;23.40;55.80;;;;;;4947779;28;88179;-88
2023/08/28 00:59:00;;;;;;;0.65;0.45;;;23.30;55.80;;;;;;4948326;28;87425;-84
2023/08/28 01:01:25;;;;;;;1.08;0.70;;;23.30;55.90;;;;;;4947923;28;88124;-88
2023/08/28 01:03:51;;;;;;;0.70;0.70;;;23.30;55.70;;;;;;4947526;28;90606;-85
2023/08/28 01:06:30;;;;;;;0.47;0.47;;;23.30;55.70;;;;;;4946262;28;87682;-84
2023/08/28 01:09:51;;;;;;;0.80;0.60;;;23.40;55.80;;;;;;4949135;28;87645;-82
2023/08/28 01:12:43;;;;;;;0.60;0.50;;;23.30;55.70;;;;;;4900879;28;87692;-88
2023/08/28 01:15:17;;;;;;;0.55;0.50;;;23.30;55.80;;;;;;4947540;28;89188;-86
2023/08/28 01:17:46;;;;;;;0.50;0.50;;;23.30;55.80;;;;;;4947132;28;87987;-85
2023/08/28 01:20:15;;;;;;;0.57;0.57;;;23.40;56.50;;;;;;4949479;28;87685;-87
2023/08/28 01:23:07;;;;;;;1.67;0.60;;;23.30;55.90;;;;;;4948994;28;87841;-84
2023/08/28 01:26:01;;;;;;;0.60;0.60;;;23.30;55.90;;;;;;5022534;27;87170;-87
2023/08/28 01:28:27;;;;;;;1.15;0.70;;;23.40;55.90;;;;;;5006265;27;86509;-88
2023/08/28 01:30:53;;;;;;;0.50;0.50;;;23.30;55.90;;;;;;5022103;27;86375;-87
2023/08/28 01:33:19;;;;;;;0.63;0.40;;;23.30;55.80;;;;;;5021182;27;86602;-86
2023/08/28 01:35:55;;;;;;;0.55;0.55;;;23.30;56.00;;;;;;5021284;27;86616;-89
2023/08/28 01:38:32;;;;;;;0.57;0.50;;;23.30;55.80;;;;;;5022436;27;86686;-85
2023/08/28 01:41:00;;;;;;;0.57;0.50;;;23.30;55.70;;;;;;5019701;27;86322;-85
2023/08/28 01:43:34;;;;;;;0.60;0.57;;;23.30;55.70;;;;;;5007778;28;89998;-88
2023/08/28 01:46:00;;;;;;;0.40;0.40;;;23.30;56.10;;;;;;4994251;28;86500;-86
2023/08/28 01:48:29;;;;;;;0.70;0.52;;;23.30;55.90;;;;;;4994381;28;86271;-89
2023/08/28 01:50:55;;;;;;;;;;;23.30;56.00;;;;;;4992800;28;86435;-87
2023/08/28 01:53:25;;;;;;;0.65;0.60;;;23.30;55.90;;;;;;4991953;28;86812;-89
2023/08/28 01:56:09;;;;;;;1.17;0.70;;;23.30;55.90;;;;;;4992746;28;86213;-86
2023/08/28 01:58:55;;;;;;;0.88;0.52;;;23.20;56.00;;;;;;4991940;28;86344;-87
2023/08/28 02:01:25;;;;;;;0.63;0.63;;;23.30;55.80;;;;;;4992291;28;86767;-85
2023/08/28 02:03:51;;;;;;;1.05;0.70;;;23.20;55.90;;;;;;4992837;28;88136;-88
2023/08/28 02:06:17;;;;;;;1.20;0.50;;;23.20;56.10;;;;;;4990388;28;86785;-87
2023/08/28 02:08:43;;;;;;;0.77;0.45;;;23.20;56.00;;;;;;4989137;28;85964;-86
2023/08/28 02:11:09;;;;;;;0.63;0.63;;;23.20;56.00;;;;;;4988840;28;86206;-87
2023/08/28 02:13:35;;;;;;;0.55;0.55;;;23.20;56.10;;;;;;4990632;28;86889;-88
2023/08/28 02:16:01;;;;;;;0.70;0.70;;;23.30;56.10;;;;;;4993707;28;86078;-89
2023/08/28 02:18:27;;;;;;;0.75;0.75;;;23.20;55.90;;;;;;5008683;28;86269;-85
2023/08/28 02:20:52;;;;;;;0.50;0.50;;;23.20;56.00;;;;;;4992438;28;86350;-87
2023/08/28 02:23:19;;;;;;;0.47;0.47;;;23.20;55.90;;;;;;4990035;28;86682;-87
2023/08/28 02:25:47;;;;;;;0.50;0.50;;;23.20;56.00;;;;;;4992534;28;86364;-89
2023/08/28 02:28:13;;;;;;;0.50;0.50;;;23.20;56.00;;;;;;4991808;28;86534;-88
2023/08/28 02:30:39;;;;;;;0.60;0.60;;;23.20;55.90;;;;;;4994405;28;86227;-86
2023/08/28 02:33:05;;;;;;;0.60;0.60;;;23.20;56.00;;;;;;4991286;28;86873;-90
2023/08/28 02:35:31;;;;;;;0.45;0.45;;;23.20;56.00;;;;;;4988312;28;86195;-89
2023/08/28 02:37:57;;;;;;;0.52;0.52;;;23.20;56.00;;;;;;4981001;28;85953;-88
2023/08/28 02:40:24;;;;;;;0.60;0.50;;;23.20;55.90;;;;;;4975777;28;86218;-89
2023/08/28 02:42:50;;;;;;;0.40;0.40;;;23.30;56.00;;;;;;4976321;28;89996;-90
2023/08/28 02:45:15;;;;;;;0.55;0.40;;;23.20;56.00;;;;;;4979312;28;87023;-87
2023/08/28 02:47:41;;;;;;;0.47;0.43;;;23.20;55.90;;;;;;4977915;28;86583;-88
2023/08/28 02:50:07;;;;;;;0.50;0.50;;;23.20;56.10;;;;;;4977044;28;85942;-88
2023/08/28 02:52:33;;;;;;;0.50;0.50;;;23.20;56.00;;;;;;4977430;28;87563;-86
2023/08/28 02:54:58;;;;;;;0.80;0.50;;;23.20;56.10;;;;;;4980322;28;86168;-86
2023/08/28 02:57:24;;;;;;;0.70;0.52;;;23.20;56.20;;;;;;4977544;28;86370;-90
2023/08/28 02:59:50;;;;;;;0.80;0.60;;;23.20;56.20;;;;;;4975422;28;86556;-87
2023/08/28 03:02:15;;;;;;;0.68;0.40;;;23.20;56.10;;;;;;4970399;28;88858;-88
2023/08/28 03:04:42;;;;;;;0.40;0.40;;;23.20;56.20;;;;;;4974572;28;86397;-86
2023/08/28 03:07:08;;;;;;;0.82;0.63;;;23.20;56.30;;;;;;4973688;28;86150;-86
2023/08/28 03:09:33;;;;;;;0.57;0.57;;;23.20;56.30;;;;;;4973300;28;86393;-86
2023/08/28 03:12:00;;;;;;;0.73;0.70;;;23.20;56.30;;;;;;4976518;28;87753;-85
2023/08/28 03:14:26;;;;;;;0.50;0.50;;;23.20;56.40;;;;;;4974373;28;86324;-86
2023/08/28 03:16:51;;;;;;;0.40;0.40;;;23.20;56.30;;;;;;4973736;28;86517;-86
2023/08/28 03:19:17;;;;;;;0.85;0.68;;;23.10;56.30;;;;;;4970554;28;86561;-86
2023/08/28 03:21:43;;;;;;;0.65;0.60;;;23.10;56.30;;;;;;4977276;28;86514;-88
2023/08/28 03:24:08;;;;;;;0.40;0.40;;;23.10;56.30;;;;;;4973280;28;86366;-91
2023/08/28 03:26:34;;;;;;;0.47;0.47;;;23.10;56.30;;;;;;4977351;28;86294;-85
2023/08/28 03:29:00;;;;;;;4.57;0.80;;;23.10;56.40;;;;;;4972095;28;86913;-86
2023/08/28 03:31:27;;;;;;;0.47;0.40;;;23.10;56.40;;;;;;4973274;28;86769;-85
2023/08/28 03:33:53;;;;;;;0.70;0.52;;;23.10;56.40;;;;;;4971608;28;87176;-85
2023/08/28 03:36:19;;;;;;;0.82;0.60;;;23.10;56.20;;;;;;4970681;28;86173;-85
2023/08/28 03:38:45;;;;;;;0.50;0.50;;;23.10;56.30;;;;;;4976063;28;86437;-84
2023/08/28 03:41:11;;;;;;;0.63;0.63;;;23.10;56.30;;;;;;4973717;28;87289;-86
2023/08/28 03:43:36;;;;;;;0.50;0.50;;;23.10;56.40;;;;;;4973567;28;86533;-85
2023/08/28 03:46:03;;;;;;;0.70;0.65;;;23.10;56.30;;;;;;4974295;28;86162;-86
2023/08/28 03:48:28;;;;;;;0.80;0.75;;;23.10;56.30;;;;;;4968900;28;86317;-84
2023/08/28 03:50:54;;;;;;;0.93;0.73;;;23.00;56.30;;;;;;4988347;28;90113;-84
2023/08/28 03:53:20;;;;;;;0.40;0.40;;;23.10;56.40;;;;;;4974020;28;85836;-86
2023/08/28 03:55:45;;;;;;;0.88;0.70;;;23.00;56.40;;;;;;4972053;28;90601;-89
2023/08/28 03:58:11;;;;;;;0.50;0.50;;;23.10;56.30;;;;;;4973212;28;86344;-85
2023/08/28 04:00:39;;;;;;;0.68;0.55;;;23.00;56.30;;;;;;4974111;28;89513;-86
2023/08/28 04:03:05;;;;;;;0.40;0.40;;;23.10;56.30;;;;;;4973674;28;87712;-85
2023/08/28 04:05:32;;;;;;;0.60;0.60;;;23.10;56.50;;;;;;4972100;28;86263;-85
2023/08/28 04:07:58;;;;;;;0.57;0.57;;;23.00;56.40;;;;;;4973300;28;86104;-87
2023/08/28 04:10:24;;;;;;;0.60;0.60;;;23.00;56.40;;;;;;4974413;28;86725;-84
2023/08/28 04:12:49;;;;;;;1.08;0.52;;;23.00;56.50;;;;;;4974556;28;86975;-85
2023/08/28 04:15:15;;;;;;;0.57;0.50;;;23.00;56.50;;;;;;4974390;28;86468;-87
2023/08/28 04:17:41;;;;;;;1.00;0.60;;;23.00;56.50;;;;;;4971512;28;86247;-86
2023/08/28 04:20:12;;;;;;;0.70;0.60;;;23.00;56.50;;;;;;4974435;28;87160;-84
2023/08/28 04:22:41;;;;;;;0.68;0.68;;;23.00;56.40;;;;;;4974838;28;89218;-86
2023/08/28 04:25:07;;;;;;;0.50;0.50;;;23.00;56.30;;;;;;4973720;28;85844;-85
2023/08/28 04:27:33;;;;;;;0.98;0.60;;;23.00;56.40;;;;;;4975181;28;86713;-85
2023/08/28 04:29:58;;;;;;;0.75;0.60;;;23.00;56.50;;;;;;4972823;28;87521;-89
2023/08/28 04:32:24;;;;;;;0.57;0.43;;;23.00;56.50;;;;;;4975917;28;87154;-85
2023/08/28 04:34:50;;;;;;;0.82;0.60;;;23.00;56.40;;;;;;4974850;28;86817;-87
2023/08/28 04:37:16;;;;;;;0.60;0.60;;;23.00;56.50;;;;;;4973461;28;86598;-89
2023/08/28 04:39:43;;;;;;;0.43;0.40;;;23.00;56.40;;;;;;4971075;28;86472;-88
2023/08/28 04:42:10;;;;;;;0.90;0.60;;;23.00;56.40;;;;;;4971685;28;89130;-85
2023/08/28 04:44:35;;;;;;;0.70;0.70;;;23.00;56.40;;;;;;4973094;28;86327;-85
2023/08/28 04:47:02;;;;;;;0.75;0.70;;;23.00;56.50;;;;;;4973551;28;86716;-88
2023/08/28 04:49:27;;;;;;;0.50;0.50;;;23.00;56.70;;;;;;4985085;28;89374;-85
2023/08/28 04:51:53;;;;;;;0.60;0.60;;;22.90;56.70;;;;;;4974656;28;86300;-85
2023/08/28 04:54:19;;;;;;;1.60;0.63;;;22.90;56.60;;;;;;4975620;28;86906;-86
2023/08/28 04:56:45;;;;;;;0.82;0.55;;;23.00;56.60;;;;;;4972176;28;85776;-85
2023/08/28 04:59:11;;;;;;;0.50;0.50;;;22.90;56.70;;;;;;4971456;28;86862;-87
2023/08/28 05:01:36;;;;;;;0.63;0.40;;;23.00;56.70;;;;;;4971498;28;86827;-85
2023/08/28 05:04:02;;;;;;;0.55;0.55;;;23.00;56.60;;;;;;4973423;28;86210;-86
2023/08/28 05:06:28;;;;;;;0.65;0.60;;;23.00;56.70;;;;;;4973921;28;86952;-85
2023/08/28 05:08:54;;;;;;;0.60;0.60;;;23.00;56.60;;;;;;4974457;28;87336;-86
2023/08/28 05:11:20;;;;;;;0.55;0.50;;;23.00;56.60;;;;;;4973531;28;86991;-86
2023/08/28 05:13:45;;;;;;;0.73;0.52;;;23.00;56.60;;;;;;4974280;28;91620;-86
2023/08/28 05:16:11;;;;;;;0.47;0.45;;;23.00;56.50;;;;;;4972776;28;86109;-86
2023/08/28 05:18:37;;;;;;;0.68;0.50;;;23.00;56.70;;;;;;4976686;28;87189;-85
2023/08/28 05:21:02;;;;;;;0.95;0.60;;;23.00;56.50;;;;;;4974517;28;86263;-87
2023/08/28 05:23:28;;;;;;;1.33;0.70;;;23.00;56.50;;;;;;4987906;28;86253;-85
2023/08/28 05:25:55;;;;;;;0.50;0.47;;;23.10;56.30;;;;;;4973350;28;86427;-84
2023/08/28 05:28:21;;;;;;;0.63;0.50;;;23.10;56.40;;;;;;4972586;28;87238;-90
2023/08/28 05:30:47;;;;;;;1.05;0.70;;;23.20;56.20;;;;;;4975118;28;86258;-85
2023/08/28 05:33:13;;;;;;;6.28;1.48;;;23.20;56.30;;;;;;4969173;28;86627;-88
2023/08/28 05:35:38;;;;;;;3.70;1.27;;;23.20;55.00;;;;;;4966100;28;86836;-85
2023/08/28 05:38:08;;;;;;;6.93;1.60;;;23.20;55.20;;;;;;4968846;28;89384;-84
2023/08/28 05:40:33;;;;;;;;;;;23.20;54.20;;;;;;4972757;28;87329;-82
2023/08/28 05:42:59;;;;;;;2.22;1.25;;;23.30;53.80;;;;;;4974172;28;86530;-83
2023/08/28 05:45:25;;;;;;;3.45;1.58;;;23.20;53.10;;;;;;4972632;28;86440;-84
2023/08/28 05:47:51;;;;;;;64.28;14.88;;;23.30;53.50;;;;;;4971843;28;87574;-87
2023/08/28 05:50:18;;;;;;;59.80;12.65;;;23.20;53.00;;;;;;4967728;28;86321;-87
2023/08/28 05:52:44;;;;;;;41.00;9.00;;;23.20;52.70;;;;;;4969898;28;87080;-87
2023/08/28 05:55:10;;;;;;;28.23;6.68;;;23.10;52.60;;;;;;4969529;28;86060;-89
2023/08/28 05:57:36;;;;;;;29.63;5.82;;;23.10;52.60;;;;;;4999249;28;94962;-84
2023/08/28 06:00:05;;;;;;;28.10;5.25;;;23.00;52.30;;;;;;4990793;28;86826;-86
2023/08/28 06:02:31;;;;;;;17.25;4.63;;;22.90;52.30;;;;;;4976888;28;86219;-85
2023/08/28 06:04:56;;;;;;;21.35;4.55;;;22.90;52.20;;;;;;4970786;28;86401;-88
2023/08/28 06:07:22;;;;;;;15.85;4.65;;;23.00;52.30;;;;;;4969715;28;86759;-86
2023/08/28 06:09:48;;;;;;;19.63;5.30;;;23.10;52.60;;;;;;4973231;28;86668;-87
2023/08/28 06:12:14;;;;;;;19.70;5.00;;;23.10;52.20;;;;;;4971798;28;86650;-85
2023/08/28 06:14:39;;;;;;;15.98;4.35;;;23.20;52.20;;;;;;4993042;28;87051;-87
2023/08/28 06:17:06;;;;;;;13.15;4.60;;;23.20;52.50;;;;;;4976880;28;86774;-86
2023/08/28 06:19:31;;;;;;;12.48;3.90;;;23.20;52.40;;;;;;4974217;28;86070;-88
2023/08/28 06:21:58;;;;;;;10.13;4.05;;;23.30;52.60;;;;;;4971510;28;86361;-85
2023/08/28 06:24:24;;;;;;;18.85;4.25;;;23.30;52.60;;;;;;4975667;28;86071;-84
2023/08/28 06:26:52;;;;;;;12.38;3.78;;;23.30;53.40;;;;;;4973879;28;86913;-85
2023/08/28 06:29:17;;;;;;;16.83;3.95;;;23.30;53.50;;;;;;4976002;28;86082;-85
2023/08/28 06:31:43;;;;;;;19.63;4.45;;;23.20;53.50;;;;;;4973757;28;87014;-84
2023/08/28 06:34:09;;;;;;;15.43;3.75;;;23.20;54.00;;;;;;4972653;28;85969;-86
2023/08/28 06:36:34;;;;;;;12.43;4.20;;;23.40;53.90;;;;;;4975121;28;87312;-87
2023/08/28 06:39:00;;;;;;;13.35;3.40;;;23.30;53.70;;;;;;4975837;28;88793;-85
2023/08/28 06:41:26;;;;;;;14.40;3.25;;;23.20;53.70;;;;;;4977514;28;86319;-87
2023/08/28 06:43:52;;;;;;;10.82;3.85;;;23.20;53.70;;;;;;4979125;28;86531;-87
2023/08/28 06:46:17;;;;;;;15.80;4.35;;;23.20;53.90;;;;;;4977421;28;86484;-86
2023/08/28 06:48:43;;;;;;;12.13;4.20;;;23.20;54.10;;;;;;4973217;28;86559;-86
2023/08/28 06:51:10;;;;;;;10.43;3.42;;;23.20;54.20;;;;;;4976457;28;85949;-88
2023/08/28 06:53:36;;;;;;;16.48;4.60;;;23.20;54.40;;;;;;4977094;28;86540;-87
2023/08/28 06:56:03;;;;;;;9.80;3.08;;;23.20;54.60;;;;;;4977659;28;86514;-90
2023/08/28 06:58:29;;;;;;;15.55;3.50;;;23.20;54.70;;;;;;4975903;28;87787;-91
2023/08/28 07:00:55;;;;;;;11.27;3.38;;;23.20;54.70;;;;;;4979390;28;86954;-87
2023/08/28 07:03:21;;;;;;;10.85;3.38;;;23.20;55.20;;;;;;4975683;28;86719;-87
2023/08/28 07:05:46;;;;;;;16.80;4.30;;;23.20;55.10;;;;;;4970209;28;89732;-85
2023/08/28 07:08:12;;;;;;;7.82;3.17;;;23.30;54.90;;;;;;4975497;28;87257;-87
2023/08/28 07:10:42;;;;;;;9.88;3.10;;;23.30;55.40;;;;;;4975194;28;86282;-86
2023/08/28 07:13:08;;;;;;;18.45;5.60;;;23.30;55.70;;;;;;4972110;28;86070;-86
2023/08/28 07:15:34;;;;;;;8.73;3.50;;;23.40;55.30;;;;;;4978471;28;86435;-85
2023/08/28 07:17:59;;;;;;;11.63;4.15;;;23.40;55.50;;;;;;4973656;28;86608;-87
2023/08/28 07:20:25;;;;;;;13.32;3.35;;;23.40;56.20;;;;;;4971750;28;85721;-85
2023/08/28 07:22:53;;;;;;;16.40;4.60;;;23.50;55.60;;;;;;4968565;28;86533;-84
2023/08/28 07:25:21;;;;;;;13.90;3.95;;;23.50;55.50;;;;;;4966352;28;86339;-85
2023/08/28 07:27:47;;;;;;;10.02;3.35;;;23.40;55.60;;;;;;4970536;28;88634;-85
2023/08/28 07:30:13;;;;;;;17.45;4.63;;;23.40;56.10;;;;;;4967257;28;86047;-87
2023/08/28 07:32:39;;;;;;;12.43;3.70;;;23.40;56.00;;;;;;4970005;28;85971;-87
2023/08/28 07:35:06;;;;;;;15.52;3.72;;;23.40;56.40;;;;;;4986919;28;88219;-86
2023/08/28 07:37:34;;;;;;;15.65;4.05;;;23.40;56.50;;;;;;4974005;28;86633;-89
2023/08/28 07:40:00;;;;;;;14.48;3.83;;;23.30;56.70;;;;;;4971351;28;86447;-85
2023/08/28 07:42:25;;;;;;;8.32;3.53;;;23.30;57.00;;;;;;4999843;28;86689;-86
2023/08/28 07:44:51;;;;;;;9.73;3.50;;;23.30;57.00;;;;;;4999382;28;86189;-87
2023/08/28 07:47:18;;;;;;;10.38;3.72;;;23.30;57.00;;;;;;4998187;28;86963;-85
2023/08/28 07:49:43;;;;;;;7.97;3.70;;;23.30;57.10;;;;;;4999012;28;86795;-85
2023/08/28 07:52:09;;;;;;;11.10;4.05;;;23.30;57.20;;;;;;5000642;28;86453;-83
2023/08/28 07:54:36;;;;;;;10.27;3.67;;;23.30;57.40;;;;;;4997727;28;89927;-82
2023/08/28 07:57:03;;;;;;;8.45;3.78;;;23.30;57.50;;;;;;4999518;28;86755;-85
2023/08/28 07:59:29;;;;;;;12.02;3.58;;;23.30;57.60;;;;;;4999888;28;86821;-83
2023/08/28 08:01:56;;;;;;;15.10;4.63;;;23.30;57.60;;;;;;4999980;28;86521;-84
2023/08/28 08:04:21;;;;;;;13.73;4.75;;;23.30;57.70;;;;;;4998036;28;86794;-85
2023/08/28 08:06:47;;;;;;;13.20;4.60;;;23.30;57.80;;;;;;4997022;28;86415;-85
2023/08/28 08:09:13;;;;;;;10.02;3.97;;;23.30;57.90;;;;;;5000222;28;86458;-85
2023/08/28 08:11:38;;;;;;;15.85;4.18;;;23.30;57.90;;;;;;5002559;28;87017;-84
2023/08/28 08:14:04;;;;;;;12.00;3.88;;;23.30;57.90;;;;;;4986922;28;86811;-85
2023/08/28 08:16:30;;;;;;;9.35;3.58;;;23.30;57.90;;;;;;4969125;28;86192;-83
2023/08/28 08:18:55;;;;;;;11.02;3.83;;;23.30;58.10;;;;;;4974955;28;86365;-86
2023/08/28 08:21:21;;;;;;;11.73;4.15;;;23.30;58.10;;;;;;4971110;28;86915;-86
2023/08/28 08:23:48;;;;;;;8.85;3.90;;;23.30;58.10;;;;;;4972026;28;86523;-86
2023/08/28 08:26:14;;;;;;;13.15;3.53;;;23.30;58.30;;;;;;4971067;28;86198;-86
2023/08/28 08:28:41;;;;;;;11.18;3.40;;;23.30;58.60;;;;;;4973163;28;86319;-86
2023/08/28 08:31:06;;;;;;;8.32;3.58;;;23.40;58.60;;;;;;4968438;28;86243;-88
2023/08/28 08:33:32;;;;;;;15.35;4.05;;;23.40;58.50;;;;;;4967498;28;89066;-86
2023/08/28 08:35:58;;;;;;;12.07;3.47;;;23.40;58.40;;;;;;4971817;28;86440;-85
2023/08/28 08:38:23;;;;;;;9.13;2.92;;;23.30;58.30;;;;;;4971740;28;86346;-86
2023/08/28 08:40:54;;;;;;;11.30;3.72;;;23.30;58.40;;;;;;4966723;28;86605;-86
2023/08/28 08:43:20;;;;;;;10.18;3.53;;;23.30;58.50;;;;;;4967701;28;86588;-84
2023/08/28 08:45:50;;;;;;;8.85;3.33;;;23.20;58.40;;;;;;4968017;28;88135;-87
2023/08/28 08:48:20;;;;;;;8.00;3.30;;;23.30;58.60;;;;;;4968583;28;86243;-84
2023/08/28 08:50:47;;;;;;;8.73;3.88;;;23.30;58.70;;;;;;4970006;28;86425;-85
2023/08/28 08:53:25;;;;;;;8.00;3.00;;;23.30;58.70;;;;;;4968634;28;88047;-86
2023/08/28 08:55:53;;;;;;;8.60;3.28;;;23.30;58.70;;;;;;4965216;28;86041;-85
2023/08/28 08:58:20;;;;;;;7.87;3.67;;;23.30;58.80;;;;;;4971602;28;86284;-86
2023/08/28 09:00:47;;;;;;;8.18;2.95;;;23.30;58.60;;;;;;4972378;28;86261;-86
2023/08/28 09:03:14;;;;;;;10.60;3.40;;;23.40;58.40;;;;;;4965712;28;89334;-89
2023/08/28 09:05:41;;;;;;;8.77;3.22;;;23.40;58.70;;;;;;4968043;28;86381;-84
2023/08/28 09:08:07;;;;;;;8.75;3.10;;;23.30;58.50;;;;;;4967813;28;86538;-86
2023/08/28 09:10:33;;;;;;;5.93;2.80;;;23.40;58.60;;;;;;4971595;28;86244;-84
2023/08/28 09:13:00;;;;;;;13.18;3.72;;;23.40;58.30;;;;;;4962979;28;86831;-85
2023/08/28 09:15:26;;;;;;;13.48;3.30;;;23.40;58.30;;;;;;4967609;28;87581;-86
2023/08/28 09:17:52;;;;;;;8.48;2.92;;;23.50;58.20;;;;;;4963241;28;86828;-86
2023/08/28 09:20:21;;;;;;;12.95;3.08;;;23.40;58.40;;;;;;4970455;28;86167;-85
2023/08/28 09:22:54;;;;;;;5.90;2.58;;;23.40;58.70;;;;;;4970553;28;86810;-86
2023/08/28 09:25:21;;;;;;;7.20;2.92;;;23.40;58.50;;;;;;4966885;28;89646;-86
2023/08/28 09:27:49;;;;;;;7.90;3.28;;;23.40;58.50;;;;;;4971845;28;86635;-85
2023/08/28 09:30:36;;;;;;;7.05;2.63;;;23.60;58.30;;;;;;4968974;28;86524;-87
2023/08/28 09:33:04;;;;;;;4.60;2.60;;;23.40;58.50;;;;;;4969195;28;86211;-84
2023/08/28 09:35:45;;;;;;;4.82;2.58;;;23.40;58.80;;;;;;4968730;28;89371;-88
2023/08/28 09:38:11;;;;;;;8.13;2.55;;;23.40;59.00;;;;;;4965151;28;86537;-86
2023/08/28 09:40:41;;;;;;;8.95;2.50;;;23.40;59.20;;;;;;4967556;28;85875;-87
2023/08/28 09:43:12;;;;;;;6.22;2.50;;;23.40;59.20;;;;;;4968017;28;86690;-86
2023/08/28 09:45:42;;;;;;;9.10;3.00;;;23.40;59.30;;;;;;4995705;28;93147;-88
2023/08/28 09:48:09;;;;;;;5.85;2.33;;;23.40;59.10;;;;;;5000744;28;87024;-85
2023/08/28 09:50:38;;;;;;;5.13;2.53;;;23.40;59.30;;;;;;4999168;28;86313;-85
2023/08/28 09:53:12;;;;;;;8.00;2.63;;;23.40;59.40;;;;;;5001109;28;87107;-84
2023/08/28 09:55:50;;;;;;;5.68;2.50;;;23.40;59.00;;;;;;5001050;28;89162;-86
2023/08/28 09:58:16;;;;;;;5.18;2.42;;;23.50;59.00;;;;;;5000986;28;86459;-85
2023/08/28 10:00:42;;;;;;;5.03;2.85;;;23.50;59.00;;;;;;5004240;28;86114;-85
2023/08/28 10:03:13;;;;;;;5.70;2.47;;;23.40;58.90;;;;;;5001251;28;87075;-85
2023/08/28 10:05:42;;;;;;;6.60;2.25;;;23.40;59.00;;;;;;5002445;28;86782;-84
2023/08/28 10:08:09;;;;;;;6.28;2.55;;;23.40;59.00;;;;;;5018856;28;86654;-85
2023/08/28 10:10:37;;;;;;;5.93;2.45;;;23.40;58.90;;;;;;4999042;28;86871;-86
2023/08/28 10:13:05;;;;;;;6.25;2.95;;;23.40;59.20;;;;;;5001948;28;87042;-85
2023/08/28 10:15:40;;;;;;;10.13;1.90;;;23.40;59.00;;;;;;5000722;28;88915;-87
2023/08/28 10:18:14;;;;;;;9.73;2.60;;;23.40;59.20;;;;;;5001794;28;86770;-85
2023/08/28 10:20:40;;;;;;;5.53;2.13;;;23.40;59.20;;;;;;4990781;28;86475;-85
2023/08/28 10:23:09;;;;;;;7.00;2.67;;;23.40;59.30;;;;;;4973474;28;86674;-89
2023/08/28 10:25:35;;;;;;;6.75;2.13;;;23.50;59.30;;;;;;4963022;28;86979;-86
2023/08/28 10:28:03;;;;;;;6.38;2.67;;;23.70;59.00;;;;;;4972788;28;86695;-86
2023/08/28 10:30:30;;;;;;;6.78;2.15;;;23.70;58.80;;;;;;4972231;28;87123;-86
2023/08/28 10:32:58;;;;;;;7.00;2.63;;;23.70;59.00;;;;;;4972050;28;86507;-85
2023/08/28 10:35:25;;;;;;;7.03;2.40;;;23.60;58.90;;;;;;4970562;28;89147;-86
2023/08/28 10:37:52;;;;;;;7.97;3.10;;;23.60;59.00;;;;;;4971404;28;86980;-86
2023/08/28 10:40:20;;;;;;;5.15;2.30;;;23.60;59.40;;;;;;4973151;28;86549;-84
2023/08/28 10:42:46;;;;;;;9.75;3.28;;;23.60;59.30;;;;;;4976427;28;86820;-86
2023/08/28 10:45:12;;;;;;;9.20;3.10;;;23.50;59.70;;;;;;4975278;28;88348;-85
2023/08/28 10:47:38;;;;;;;10.25;2.88;;;23.50;60.00;;;;;;4977095;28;86385;-87
2023/08/28 10:50:07;;;;;;;5.68;2.90;;;23.50;60.00;;;;;;4974496;28;85735;-85
2023/08/28 10:52:33;;;;;;;4.22;2.30;;;23.70;58.80;;;;;;4974726;28;86632;-88
2023/08/28 10:55:06;;;;;;;5.18;2.00;;;23.70;57.80;;;;;;4974344;28;86856;-84
2023/08/28 10:57:32;;;;;;;9.50;2.88;;;23.70;58.90;;;;;;4969164;28;87272;-85
2023/08/28 11:00:14;;;;;;;8.98;2.38;;;23.80;58.20;;;;;;4974323;28;86563;-85
2023/08/28 11:03:02;;;;;;;7.07;2.25;;;23.70;58.50;;;;;;4975456;28;86833;-84
2023/08/28 11:05:27;;;;;;;9.27;1.85;;;23.80;58.00;;;;;;4972830;28;86853;-84
2023/08/28 11:07:56;;;;;;;6.25;1.63;;;23.80;57.90;;;;;;4972516;28;86233;-84
2023/08/28 11:10:25;;;;;;;6.15;1.95;;;23.80;58.30;;;;;;4973214;28;88472;-84
2023/08/28 11:12:55;;;;;;;4.78;1.75;;;23.90;58.20;;;;;;4974427;28;86199;-87
2023/08/28 11:15:26;;;;;;;6.35;1.60;;;23.90;58.60;;;;;;4971025;28;86706;-85
2023/08/28 11:18:18;;;;;;;5.00;1.73;;;23.90;58.60;;;;;;4981945;28;86272;-84
2023/08/28 11:20:48;;;;;;;4.65;1.48;;;24.00;58.80;;;;;;4966570;28;86438;-83
2023/08/28 11:23:34;;;;;;;5.18;1.58;;;24.00;57.60;;;;;;4953904;28;87927;-84
2023/08/28 11:26:28;;;;;;;4.55;1.73;;;23.90;57.60;;;;;;4988859;28;87696;-83
2023/08/28 11:28:53;;;;;;;7.38;1.70;;;23.80;57.70;;;;;;4970461;28;86314;-86
2023/08/28 11:31:19;;;;;;;7.43;1.90;;;23.90;58.20;;;;;;4973896;28;86631;-86
2023/08/28 11:33:49;;;;;;;6.40;1.63;;;23.90;58.20;;;;;;4968781;28;87073;-85
2023/08/28 11:36:17;;;;;;;9.25;1.67;;;24.00;57.60;;;;;;4973837;28;87178;-85
2023/08/28 11:38:46;;;;;;;4.10;1.33;;;24.00;57.30;;;;;;4975262;28;86473;-86
2023/08/28 11:41:13;;;;;;;4.22;1.55;;;23.90;57.30;;;;;;4966230;28;86621;-85
2023/08/28 11:43:40;;;;;;;10.90;1.98;;;23.80;57.70;;;;;;4965504;28;86541;-86
2023/08/28 11:46:06;;;;;;;3.05;1.70;;;23.90;57.50;;;;;;4972122;28;86512;-85
2023/08/28 11:48:33;;;;;;;5.03;1.70;;;23.80;57.70;;;;;;4970461;28;87059;-85
2023/08/28 11:51:03;;;;;;;7.10;1.77;;;23.70;57.80;;;;;;4970675;28;86261;-86
2023/08/28 11:53:36;;;;;;;3.50;1.70;;;23.70;57.80;;;;;;4976224;28;86204;-85
2023/08/28 11:56:03;;;;;;;3.78;1.48;;;23.70;58.20;;;;;;4968893;28;86514;-84
2023/08/28 11:58:30;;;;;;;5.13;1.60;;;23.60;58.30;;;;;;4975579;28;85687;-87
2023/08/28 12:00:56;;;;;;;3.72;1.45;;;23.60;58.20;;;;;;4968324;28;86780;-86
2023/08/28 12:03:21;;;;;;;4.10;1.33;;;23.60;58.10;;;;;;4998889;28;89397;-85
2023/08/28 12:05:47;;;;;;;4.30;1.42;;;23.50;58.20;;;;;;5003021;28;86348;-84
2023/08/28 12:08:13;;;;;;;6.07;1.25;;;23.50;58.20;;;;;;4977357;28;87213;-83
2023/08/28 12:10:40;;;;;;;3.45;1.25;;;23.60;57.80;;;;;;4996052;28;87139;-85
2023/08/28 12:13:07;;;;;;;3.15;1.15;;;23.60;57.60;;;;;;4997136;28;87412;-91
2023/08/28 12:15:34;;;;;;;6.72;1.15;;;23.70;57.80;;;;;;5005253;28;86250;-90
2023/08/28 12:18:04;;;;;;;3.92;1.33;;;23.70;57.80;;;;;;5006479;28;86916;-91
2023/08/28 12:20:30;;;;;;;3.30;1.00;;;23.70;57.80;;;;;;5010897;28;86462;-88
2023/08/28 12:22:58;;;;;;;3.63;1.20;;;23.70;57.70;;;;;;5009318;28;86265;-88
2023/08/28 12:25:43;;;;;;;15.63;1.40;;;23.80;57.80;;;;;;5011079;28;86790;-93
2023/08/28 12:28:13;;;;;;;16.23;1.45;;;23.90;57.70;;;;;;5010141;28;85681;-92
2023/08/28 12:30:39;;;;;;;10.05;1.67;;;24.00;57.50;;;;;;5010725;28;86321;-89
2023/08/28 12:33:07;;;;;;;10.50;1.30;;;24.10;57.40;;;;;;5009446;28;89738;-92
2023/08/28 12:35:40;;;;;;;10.95;1.52;;;24.20;57.30;;;;;;5011795;28;86462;-89
2023/08/28 12:38:06;;;;;;;17.50;2.10;;;24.30;57.10;;;;;;5012422;28;85644;-91
2023/08/28 12:40:37;;;;;;;11.23;1.50;;;24.30;57.30;;;;;;5011760;28;85789;-91
2023/08/28 12:43:14;;;;;;;13.93;1.75;;;24.30;57.00;;;;;;5007942;28;89339;-91
2023/08/28 12:45:42;;;;;;;11.07;1.50;;;24.30;57.80;;;;;;5010034;28;93160;-91
2023/08/28 12:48:08;;;;;;;15.02;1.60;;;24.40;57.50;;;;;;5008880;28;86046;-90